sensor_id;sensor_type;location;lat;lon;timestamp;pressure;altitude;pressure_sealevel;temperature;humidity
10261;BME280;5175;42.606;23.388;2023-02-03T00:02:24;93922.59;;;2.00;100.00
10261;BME280;5175;42.606;23.388;2023-02-03T00:04:51;93928.81;;;1.87;100.00
10261;BME280;5175;42.606;23.388;2023-02-03T00:07:18;93926.28;;;1.63;100.00
10261;BME280;5175;42.606;23.388;2023-02-03T00:09:44;93927.09;;;1.45;100.00
10261;BME280;5175;42.606;23.388;2023-02-03T00:12:13;93917.09;;;1.36;100.00
10261;BME280;5175;42.606;23.388;2023-02-03T00:14:40;93915.91;;;1.32;100.00
10261;BME280;5175;42.606;23.388;2023-02-03T00:17:07;93925.28;;;1.27;100.00
10261;BME280;5175;42.606;23.388;2023-02-03T00:19:34;93920.97;;;1.33;100.00
10261;BME280;5175;42.606;23.388;2023-02-03T00:22:00;93934.03;;;1.40;100.00
10261;BME280;5175;42.606;23.388;2023-02-03T00:24:27;93921.94;;;1.39;100.00
10261;BME280;5175;42.606;23.388;2023-02-03T00:26:54;93923.91;;;1.43;100.00
10261;BME280;5175;42.606;23.388;2023-02-03T00:29:22;93935.72;;;1.52;100.00
10261;BME280;5175;42.606;23.388;2023-02-03T00:31:50;93931.25;;;1.53;100.00
10261;BME280;5175;42.606;23.388;2023-02-03T00:34:17;93938.47;;;1.57;100.00
10261;BME280;5175;42.606;23.388;2023-02-03T00:36:44;93941.50;;;1.61;100.00
10261;BME280;5175;42.606;23.388;2023-02-03T00:39:12;93928.06;;;1.69;100.00
10261;BME280;5175;42.606;23.388;2023-02-03T00:41:39;93944.41;;;1.71;100.00
10261;BME280;5175;42.606;23.388;2023-02-03T00:44:06;93946.47;;;1.69;100.00
10261;BME280;5175;42.606;23.388;2023-02-03T00:46:34;93952.13;;;1.84;100.00
10261;BME280;5175;42.606;23.388;2023-02-03T00:49:01;93952.56;;;1.81;100.00
10261;BME280;5175;42.606;23.388;2023-02-03T00:51:28;93959.59;;;1.87;100.00
10261;BME280;5175;42.606;23.388;2023-02-03T00:53:55;93953.81;;;1.97;100.00
10261;BME280;5175;42.606;23.388;2023-02-03T00:56:22;93945.63;;;2.05;100.00
10261;BME280;5175;42.606;23.388;2023-02-03T00:58:48;93951.88;;;2.04;100.00
10261;BME280;5175;42.606;23.388;2023-02-03T01:01:15;93958.19;;;2.03;100.00
10261;BME280;5175;42.606;23.388;2023-02-03T01:03:43;93961.84;;;2.02;100.00
10261;BME280;5175;42.606;23.388;2023-02-03T01:06:13;93938.47;;;1.75;100.00
10261;BME280;5175;42.606;23.388;2023-02-03T01:08:40;93967.53;;;1.99;100.00
10261;BME280;5175;42.606;23.388;2023-02-03T01:11:08;93971.69;;;2.06;100.00
10261;BME280;5175;42.606;23.388;2023-02-03T01:13:35;93913.25;;;1.86;100.00
10261;BME280;5175;42.606;23.388;2023-02-03T01:16:05;93976.16;;;2.06;100.00
10261;BME280;5175;42.606;23.388;2023-02-03T01:18:32;93972.28;;;1.90;100.00
10261;BME280;5175;42.606;23.388;2023-02-03T01:21:05;93970.75;;;2.01;100.00
10261;BME280;5175;42.606;23.388;2023-02-03T01:23:33;93977.38;;;2.03;100.00
10261;BME280;5175;42.606;23.388;2023-02-03T01:26:02;93973.47;;;1.94;100.00
10261;BME280;5175;42.606;23.388;2023-02-03T01:28:29;93968.88;;;1.89;100.00
10261;BME280;5175;42.606;23.388;2023-02-03T01:30:55;93972.91;;;1.92;100.00
10261;BME280;5175;42.606;23.388;2023-02-03T01:33:22;93974.44;;;1.81;100.00
10261;BME280;5175;42.606;23.388;2023-02-03T01:35:49;93962.09;;;1.82;100.00
10261;BME280;5175;42.606;23.388;2023-02-03T01:38:17;93969.31;;;1.86;100.00
10261;BME280;5175;42.606;23.388;2023-02-03T01:40:43;93936.38;;;1.48;100.00
10261;BME280;5175;42.606;23.388;2023-02-03T01:43:10;93963.53;;;1.78;100.00
10261;BME280;5175;42.606;23.388;2023-02-03T01:45:38;93970.75;;;1.82;100.00
10261;BME280;5175;42.606;23.388;2023-02-03T01:48:07;93980.69;;;1.80;100.00
10261;BME280;5175;42.606;23.388;2023-02-03T01:50:41;93986.91;;;1.68;100.00
10261;BME280;5175;42.606;23.388;2023-02-03T01:53:09;93990.25;;;1.75;100.00
10261;BME280;5175;42.606;23.388;2023-02-03T01:55:42;94000.63;;;1.70;100.00
10261;BME280;5175;42.606;23.388;2023-02-03T01:58:13;94006.25;;;1.55;100.00
10261;BME280;5175;42.606;23.388;2023-02-03T02:00:42;93991.56;;;1.30;100.00
10261;BME280;5175;42.606;23.388;2023-02-03T02:03:09;93982.03;;;1.28;100.00
10261;BME280;5175;42.606;23.388;2023-02-03T02:05:40;93993.59;;;1.27;100.00
10261;BME280;5175;42.606;23.388;2023-02-03T02:08:11;93996.31;;;1.39;100.00
10261;BME280;5175;42.606;23.388;2023-02-03T02:10:40;93990.63;;;1.42;100.00
10261;BME280;5175;42.606;23.388;2023-02-03T02:13:07;93997.25;;;1.45;100.00
10261;BME280;5175;42.606;23.388;2023-02-03T02:15:43;94004.16;;;1.46;100.00
10261;BME280;5175;42.606;23.388;2023-02-03T02:18:31;94009.28;;;1.34;100.00
10261;BME280;5175;42.606;23.388;2023-02-03T02:21:26;94009.38;;;1.27;100.00
10261;BME280;5175;42.606;23.388;2023-02-03T02:27:06;94006.03;;;1.39;100.00
10261;BME280;5175;42.606;23.388;2023-02-03T02:30:15;93977.69;;;1.22;100.00
10261;BME280;5175;42.606;23.388;2023-02-03T02:33:01;93999.16;;;1.38;100.00
10261;BME280;5175;42.606;23.388;2023-02-03T02:35:41;94013.16;;;1.32;100.00
10261;BME280;5175;42.606;23.388;2023-02-03T02:38:15;93994.03;;;1.24;100.00
10261;BME280;5175;42.606;23.388;2023-02-03T02:40:50;94012.41;;;1.24;100.00
10261;BME280;5175;42.606;23.388;2023-02-03T02:43:22;94006.94;;;1.26;100.00
10261;BME280;5175;42.606;23.388;2023-02-03T02:45:53;94022.50;;;1.27;100.00
10261;BME280;5175;42.606;23.388;2023-02-03T02:48:26;94010.75;;;1.30;100.00
10261;BME280;5175;42.606;23.388;2023-02-03T02:50:56;94013.13;;;1.38;100.00
10261;BME280;5175;42.606;23.388;2023-02-03T02:53:27;94007.81;;;1.20;100.00
10261;BME280;5175;42.606;23.388;2023-02-03T02:55:56;94003.56;;;1.19;100.00
10261;BME280;5175;42.606;23.388;2023-02-03T02:58:26;94009.06;;;1.17;100.00
10261;BME280;5175;42.606;23.388;2023-02-03T03:00:53;94014.38;;;1.29;100.00
10261;BME280;5175;42.606;23.388;2023-02-03T03:03:22;94020.31;;;1.24;100.00
10261;BME280;5175;42.606;23.388;2023-02-03T03:05:52;94018.75;;;1.17;100.00
10261;BME280;5175;42.606;23.388;2023-02-03T03:08:24;94025.25;;;1.14;100.00
10261;BME280;5175;42.606;23.388;2023-02-03T03:10:54;94036.19;;;1.11;100.00
10261;BME280;5175;42.606;23.388;2023-02-03T03:13:25;94026.31;;;1.07;100.00
10261;BME280;5175;42.606;23.388;2023-02-03T03:15:55;94028.97;;;1.00;100.00
10261;BME280;5175;42.606;23.388;2023-02-03T03:18:26;94037.88;;;0.99;100.00
10261;BME280;5175;42.606;23.388;2023-02-03T03:20:56;94036.44;;;1.03;100.00
10261;BME280;5175;42.606;23.388;2023-02-03T03:23:32;94041.25;;;1.06;100.00
10261;BME280;5175;42.606;23.388;2023-02-03T03:26:08;94049.13;;;1.13;100.00
10261;BME280;5175;42.606;23.388;2023-02-03T03:28:44;94047.72;;;1.10;100.00
10261;BME280;5175;42.606;23.388;2023-02-03T03:31:13;94029.91;;;1.12;100.00
10261;BME280;5175;42.606;23.388;2023-02-03T03:33:41;94049.78;;;1.26;100.00
10261;BME280;5175;42.606;23.388;2023-02-03T03:36:16;94062.03;;;1.14;100.00
10261;BME280;5175;42.606;23.388;2023-02-03T03:38:49;94031.19;;;1.03;100.00
10261;BME280;5175;42.606;23.388;2023-02-03T03:41:25;94065.97;;;1.23;100.00
10261;BME280;5175;42.606;23.388;2023-02-03T03:43:57;94078.25;;;1.36;100.00
10261;BME280;5175;42.606;23.388;2023-02-03T03:46:29;94075.69;;;1.48;100.00
10261;BME280;5175;42.606;23.388;2023-02-03T03:49:01;94083.19;;;1.44;100.00
10261;BME280;5175;42.606;23.388;2023-02-03T03:51:31;94072.41;;;1.52;100.00
10261;BME280;5175;42.606;23.388;2023-02-03T03:54:02;94083.59;;;1.48;100.00
10261;BME280;5175;42.606;23.388;2023-02-03T03:56:34;94085.13;;;1.55;100.00
10261;BME280;5175;42.606;23.388;2023-02-03T03:59:03;94072.38;;;1.34;100.00
10261;BME280;5175;42.606;23.388;2023-02-03T04:01:33;94077.56;;;1.65;100.00
10261;BME280;5175;42.606;23.388;2023-02-03T04:04:06;94093.25;;;1.54;100.00
10261;BME280;5175;42.606;23.388;2023-02-03T04:06:35;94073.47;;;1.51;100.00
10261;BME280;5175;42.606;23.388;2023-02-03T04:09:02;94088.16;;;1.59;100.00
10261;BME280;5175;42.606;23.388;2023-02-03T04:11:29;94089.91;;;1.65;100.00
10261;BME280;5175;42.606;23.388;2023-02-03T04:14:13;94084.59;;;1.47;100.00
10261;BME280;5175;42.606;23.388;2023-02-03T04:16:40;94100.25;;;1.60;100.00
10261;BME280;5175;42.606;23.388;2023-02-03T04:19:08;94094.03;;;1.54;100.00
10261;BME280;5175;42.606;23.388;2023-02-03T04:21:35;94113.13;;;1.68;100.00
10261;BME280;5175;42.606;23.388;2023-02-03T04:24:02;94105.63;;;1.71;100.00
10261;BME280;5175;42.606;23.388;2023-02-03T04:26:28;94109.69;;;1.67;100.00
10261;BME280;5175;42.606;23.388;2023-02-03T04:28:55;94120.59;;;1.71;100.00
10261;BME280;5175;42.606;23.388;2023-02-03T04:31:22;94114.22;;;1.60;100.00
10261;BME280;5175;42.606;23.388;2023-02-03T04:33:48;94105.81;;;1.70;100.00
10261;BME280;5175;42.606;23.388;2023-02-03T04:36:17;94111.34;;;1.62;100.00
10261;BME280;5175;42.606;23.388;2023-02-03T04:38:43;94100.50;;;1.58;100.00
10261;BME280;5175;42.606;23.388;2023-02-03T04:41:10;94117.03;;;1.41;100.00
10261;BME280;5175;42.606;23.388;2023-02-03T04:43:37;94122.28;;;1.41;100.00
10261;BME280;5175;42.606;23.388;2023-02-03T04:46:03;94118.69;;;1.28;100.00
10261;BME280;5175;42.606;23.388;2023-02-03T04:48:30;94122.28;;;1.41;100.00
10261;BME280;5175;42.606;23.388;2023-02-03T04:51:00;94121.31;;;1.35;100.00
10261;BME280;5175;42.606;23.388;2023-02-03T04:53:29;94137.97;;;1.22;100.00
10261;BME280;5175;42.606;23.388;2023-02-03T04:55:56;94047.25;;;0.57;100.00
10261;BME280;5175;42.606;23.388;2023-02-03T04:58:22;94107.69;;;1.13;100.00
10261;BME280;5175;42.606;23.388;2023-02-03T05:00:50;94130.91;;;1.23;100.00
10261;BME280;5175;42.606;23.388;2023-02-03T05:03:17;94143.41;;;1.27;100.00
10261;BME280;5175;42.606;23.388;2023-02-03T05:05:44;94146.03;;;1.27;100.00
10261;BME280;5175;42.606;23.388;2023-02-03T05:08:10;94144.38;;;1.33;100.00
10261;BME280;5175;42.606;23.388;2023-02-03T05:10:38;94144.69;;;1.43;100.00
10261;BME280;5175;42.606;23.388;2023-02-03T05:13:05;94147.69;;;1.47;100.00
10261;BME280;5175;42.606;23.388;2023-02-03T05:15:32;94152.41;;;1.38;100.00
10261;BME280;5175;42.606;23.388;2023-02-03T05:17:58;94135.66;;;1.33;100.00
10261;BME280;5175;42.606;23.388;2023-02-03T05:20:25;94163.53;;;1.40;100.00
10261;BME280;5175;42.606;23.388;2023-02-03T05:22:52;94155.94;;;1.25;100.00
10261;BME280;5175;42.606;23.388;2023-02-03T05:25:19;94167.28;;;1.51;100.00
10261;BME280;5175;42.606;23.388;2023-02-03T05:27:47;94169.53;;;1.47;100.00
10261;BME280;5175;42.606;23.388;2023-02-03T05:30:14;94178.34;;;1.59;100.00
10261;BME280;5175;42.606;23.388;2023-02-03T05:32:40;94173.19;;;1.71;100.00
10261;BME280;5175;42.606;23.388;2023-02-03T05:35:07;94162.53;;;1.66;100.00
10261;BME280;5175;42.606;23.388;2023-02-03T05:37:34;94145.38;;;1.57;100.00
10261;BME280;5175;42.606;23.388;2023-02-03T05:40:01;94164.44;;;1.52;100.00
10261;BME280;5175;42.606;23.388;2023-02-03T05:42:47;94170.13;;;1.49;100.00
10261;BME280;5175;42.606;23.388;2023-02-03T05:45:14;94123.47;;;1.13;100.00
10261;BME280;5175;42.606;23.388;2023-02-03T05:47:41;94098.25;;;0.75;100.00
10261;BME280;5175;42.606;23.388;2023-02-03T05:50:08;94166.28;;;1.20;100.00
10261;BME280;5175;42.606;23.388;2023-02-03T05:52:35;94169.34;;;1.11;100.00
10261;BME280;5175;42.606;23.388;2023-02-03T05:55:01;94163.91;;;1.12;100.00
10261;BME280;5175;42.606;23.388;2023-02-03T05:57:28;94154.66;;;1.03;100.00
10261;BME280;5175;42.606;23.388;2023-02-03T05:59:56;94136.97;;;0.86;100.00
10261;BME280;5175;42.606;23.388;2023-02-03T06:02:23;94161.81;;;0.90;100.00
10261;BME280;5175;42.606;23.388;2023-02-03T06:04:50;94175.28;;;1.00;100.00
10261;BME280;5175;42.606;23.388;2023-02-03T06:07:17;94172.44;;;1.01;100.00
10261;BME280;5175;42.606;23.388;2023-02-03T06:09:43;94170.06;;;0.93;100.00
10261;BME280;5175;42.606;23.388;2023-02-03T06:12:10;94174.31;;;0.94;100.00
10261;BME280;5175;42.606;23.388;2023-02-03T06:14:37;94179.94;;;0.98;100.00
10261;BME280;5175;42.606;23.388;2023-02-03T06:17:05;94185.16;;;1.04;100.00
10261;BME280;5175;42.606;23.388;2023-02-03T06:19:32;94173.03;;;1.10;100.00
10261;BME280;5175;42.606;23.388;2023-02-03T06:21:58;94191.41;;;1.10;100.00
10261;BME280;5175;42.606;23.388;2023-02-03T06:24:25;94189.38;;;1.12;100.00
10261;BME280;5175;42.606;23.388;2023-02-03T06:26:52;94170.56;;;1.15;100.00
10261;BME280;5175;42.606;23.388;2023-02-03T06:29:19;94187.66;;;1.24;100.00
10261;BME280;5175;42.606;23.388;2023-02-03T06:31:45;94200.00;;;1.23;100.00
10261;BME280;5175;42.606;23.388;2023-02-03T06:34:13;94195.38;;;1.25;100.00
10261;BME280;5175;42.606;23.388;2023-02-03T06:36:40;94199.09;;;1.43;100.00
10261;BME280;5175;42.606;23.388;2023-02-03T06:39:07;94189.38;;;1.43;100.00
10261;BME280;5175;42.606;23.388;2023-02-03T06:41:34;94202.72;;;1.42;100.00
10261;BME280;5175;42.606;23.388;2023-02-03T06:44:01;94198.69;;;1.39;100.00
10261;BME280;5175;42.606;23.388;2023-02-03T06:46:28;94200.53;;;1.39;100.00
10261;BME280;5175;42.606;23.388;2023-02-03T06:48:55;94205.91;;;1.50;98.55
10261;BME280;5175;42.606;23.388;2023-02-03T06:51:23;94204.91;;;1.51;96.88
10261;BME280;5175;42.606;23.388;2023-02-03T06:53:49;94209.38;;;1.44;97.30
10261;BME280;5175;42.606;23.388;2023-02-03T06:56:16;94205.53;;;1.47;96.76
10261;BME280;5175;42.606;23.388;2023-02-03T06:58:43;94205.06;;;1.56;96.31
10261;BME280;5175;42.606;23.388;2023-02-03T07:01:10;94213.06;;;1.68;97.32
10261;BME280;5175;42.606;23.388;2023-02-03T07:03:36;94217.66;;;1.79;96.30
10261;BME280;5175;42.606;23.388;2023-02-03T07:06:04;94197.09;;;1.69;93.17
10261;BME280;5175;42.606;23.388;2023-02-03T07:08:32;94224.03;;;1.89;94.74
10261;BME280;5175;42.606;23.388;2023-02-03T07:10:58;94215.25;;;2.02;93.34
10261;BME280;5175;42.606;23.388;2023-02-03T07:13:25;94200.84;;;2.05;91.67
10261;BME280;5175;42.606;23.388;2023-02-03T07:15:52;94214.75;;;2.12;88.85
10261;BME280;5175;42.606;23.388;2023-02-03T07:18:19;94228.66;;;1.94;87.62
10261;BME280;5175;42.606;23.388;2023-02-03T07:20:48;94225.06;;;1.88;89.07
10261;BME280;5175;42.606;23.388;2023-02-03T07:23:15;94228.97;;;2.04;87.01
10261;BME280;5175;42.606;23.388;2023-02-03T07:25:43;94235.16;;;2.16;84.83
10261;BME280;5175;42.606;23.388;2023-02-03T07:28:10;94252.53;;;2.42;81.84
10261;BME280;5175;42.606;23.388;2023-02-03T07:30:37;94245.75;;;2.52;79.10
10261;BME280;5175;42.606;23.388;2023-02-03T07:33:04;94244.75;;;2.53;76.23
10261;BME280;5175;42.606;23.388;2023-02-03T07:35:32;94260.59;;;2.47;74.63
10261;BME280;5175;42.606;23.388;2023-02-03T07:37:59;94258.28;;;2.75;74.61
10261;BME280;5175;42.606;23.388;2023-02-03T07:40:26;94240.34;;;2.66;74.55
10261;BME280;5175;42.606;23.388;2023-02-03T07:42:54;94254.19;;;2.79;74.10
10261;BME280;5175;42.606;23.388;2023-02-03T07:45:20;94270.66;;;2.75;74.30
10261;BME280;5175;42.606;23.388;2023-02-03T07:47:49;94250.81;;;2.54;74.28
10261;BME280;5175;42.606;23.388;2023-02-03T07:50:16;94277.56;;;2.51;74.63
10261;BME280;5175;42.606;23.388;2023-02-03T07:52:42;94267.50;;;2.41;75.41
10261;BME280;5175;42.606;23.388;2023-02-03T07:55:09;94251.59;;;2.54;75.06
10261;BME280;5175;42.606;23.388;2023-02-03T07:57:36;94256.69;;;2.74;74.21
10261;BME280;5175;42.606;23.388;2023-02-03T08:00:10;94250.16;;;2.77;73.33
10261;BME280;5175;42.606;23.388;2023-02-03T08:02:38;94256.72;;;2.68;74.06
10261;BME280;5175;42.606;23.388;2023-02-03T08:05:05;94256.69;;;2.74;75.26
10261;BME280;5175;42.606;23.388;2023-02-03T08:07:32;94249.00;;;2.91;73.55
10261;BME280;5175;42.606;23.388;2023-02-03T08:09:59;94257.13;;;2.89;73.16
10261;BME280;5175;42.606;23.388;2023-02-03T08:12:25;94242.13;;;2.72;73.79
10261;BME280;5175;42.606;23.388;2023-02-03T08:14:52;94251.69;;;2.66;73.84
10261;BME280;5175;42.606;23.388;2023-02-03T08:17:20;94226.06;;;2.55;73.57
10261;BME280;5175;42.606;23.388;2023-02-03T08:19:47;94254.94;;;2.86;72.28
10261;BME280;5175;42.606;23.388;2023-02-03T08:22:14;94259.09;;;2.94;71.66
10261;BME280;5175;42.606;23.388;2023-02-03T08:24:41;94276.06;;;2.98;71.63
10261;BME280;5175;42.606;23.388;2023-02-03T08:27:10;94275.00;;;2.87;72.22
10261;BME280;5175;42.606;23.388;2023-02-03T08:29:37;94267.66;;;2.89;70.95
10261;BME280;5175;42.606;23.388;2023-02-03T08:32:04;94257.63;;;2.98;71.23
10261;BME280;5175;42.606;23.388;2023-02-03T08:34:32;94257.59;;;3.16;69.72
10261;BME280;5175;42.606;23.388;2023-02-03T08:36:59;94267.81;;;3.12;70.02
10261;BME280;5175;42.606;23.388;2023-02-03T08:39:25;94272.44;;;3.47;67.60
10261;BME280;5175;42.606;23.388;2023-02-03T08:41:52;94266.16;;;3.48;67.88
10261;BME280;5175;42.606;23.388;2023-02-03T08:44:19;94280.31;;;3.65;66.68
10261;BME280;5175;42.606;23.388;2023-02-03T08:46:48;94282.13;;;3.83;66.36
10261;BME280;5175;42.606;23.388;2023-02-03T08:49:15;94277.34;;;3.61;66.57
10261;BME280;5175;42.606;23.388;2023-02-03T08:51:43;94288.16;;;3.71;67.00
10261;BME280;5175;42.606;23.388;2023-02-03T08:54:10;94287.97;;;3.85;66.02
10261;BME280;5175;42.606;23.388;2023-02-03T08:56:38;94272.63;;;3.63;66.82
10261;BME280;5175;42.606;23.388;2023-02-03T08:59:05;94295.53;;;3.81;68.43
10261;BME280;5175;42.606;23.388;2023-02-03T09:01:31;94296.22;;;3.76;67.25
10261;BME280;5175;42.606;23.388;2023-02-03T09:03:58;94290.06;;;3.83;67.59
10261;BME280;5175;42.606;23.388;2023-02-03T09:06:27;94285.28;;;3.73;68.68
10261;BME280;5175;42.606;23.388;2023-02-03T09:08:55;94292.34;;;3.91;70.66
10261;BME280;5175;42.606;23.388;2023-02-03T09:11:22;94301.59;;;4.11;69.40
10261;BME280;5175;42.606;23.388;2023-02-03T09:13:49;94285.81;;;3.93;68.80
10261;BME280;5175;42.606;23.388;2023-02-03T09:16:17;94261.25;;;3.51;69.78
10261;BME280;5175;42.606;23.388;2023-02-03T09:18:46;94293.00;;;3.74;69.34
10261;BME280;5175;42.606;23.388;2023-02-03T09:21:13;94283.91;;;3.70;70.50
10261;BME280;5175;42.606;23.388;2023-02-03T09:23:41;94270.25;;;3.62;71.81
10261;BME280;5175;42.606;23.388;2023-02-03T09:26:11;94285.59;;;3.95;72.39
10261;BME280;5175;42.606;23.388;2023-02-03T09:28:38;94294.34;;;4.07;70.93
10261;BME280;5175;42.606;23.388;2023-02-03T09:31:07;94267.94;;;4.07;70.13
10261;BME280;5175;42.606;23.388;2023-02-03T09:33:34;94289.88;;;4.19;70.05
10261;BME280;5175;42.606;23.388;2023-02-03T09:36:01;94287.94;;;4.03;69.75
10261;BME280;5175;42.606;23.388;2023-02-03T09:38:28;94292.59;;;3.59;70.88
10261;BME280;5175;42.606;23.388;2023-02-03T09:40:59;94293.53;;;3.95;70.15
10261;BME280;5175;42.606;23.388;2023-02-03T09:43:32;94291.88;;;4.23;71.28
10261;BME280;5175;42.606;23.388;2023-02-03T09:46:02;94292.00;;;4.40;69.12
10261;BME280;5175;42.606;23.388;2023-02-03T09:48:36;94274.69;;;4.67;67.73
10261;BME280;5175;42.606;23.388;2023-02-03T09:51:07;94280.31;;;4.82;67.23
10261;BME280;5175;42.606;23.388;2023-02-03T09:53:43;94290.88;;;4.59;66.48
10261;BME280;5175;42.606;23.388;2023-02-03T09:56:19;94298.88;;;4.29;66.21
10261;BME280;5175;42.606;23.388;2023-02-03T09:58:50;94307.03;;;4.28;66.52
10261;BME280;5175;42.606;23.388;2023-02-03T10:01:17;94276.88;;;4.06;65.10
10261;BME280;5175;42.606;23.388;2023-02-03T10:03:51;94304.84;;;4.25;66.11
10261;BME280;5175;42.606;23.388;2023-02-03T10:06:30;94308.09;;;4.38;66.26
10261;BME280;5175;42.606;23.388;2023-02-03T10:09:08;94303.38;;;4.40;63.07
10261;BME280;5175;42.606;23.388;2023-02-03T10:12:00;94293.25;;;4.26;64.02
10261;BME280;5175;42.606;23.388;2023-02-03T10:14:48;94299.16;;;4.74;62.62
10261;BME280;5175;42.606;23.388;2023-02-03T10:17:26;94304.31;;;4.58;60.80
10261;BME280;5175;42.606;23.388;2023-02-03T10:20:00;94306.97;;;4.05;62.63
10261;BME280;5175;42.606;23.388;2023-02-03T10:22:30;94291.94;;;4.05;62.62
10261;BME280;5175;42.606;23.388;2023-02-03T10:25:00;94291.91;;;3.94;63.19
10261;BME280;5175;42.606;23.388;2023-02-03T10:27:31;94299.94;;;3.99;62.24
10261;BME280;5175;42.606;23.388;2023-02-03T10:30:03;94311.69;;;4.03;62.49
10261;BME280;5175;42.606;23.388;2023-02-03T10:32:30;94305.25;;;4.52;63.36
10261;BME280;5175;42.606;23.388;2023-02-03T10:34:59;94294.88;;;4.50;60.53
10261;BME280;5175;42.606;23.388;2023-02-03T10:37:29;94300.53;;;4.88;60.78
10261;BME280;5175;42.606;23.388;2023-02-03T10:39:58;94295.81;;;5.02;59.38
10261;BME280;5175;42.606;23.388;2023-02-03T10:42:28;94291.34;;;5.02;59.36
10261;BME280;5175;42.606;23.388;2023-02-03T10:45:17;94294.50;;;5.28;60.37
10261;BME280;5175;42.606;23.388;2023-02-03T10:47:46;94296.72;;;5.19;56.16
10261;BME280;5175;42.606;23.388;2023-02-03T10:50:16;94287.50;;;5.22;57.07
10261;BME280;5175;42.606;23.388;2023-02-03T10:52:44;94290.56;;;5.82;55.68
10261;BME280;5175;42.606;23.388;2023-02-03T10:55:28;94293.38;;;5.63;51.90
10261;BME280;5175;42.606;23.388;2023-02-03T10:57:56;94297.00;;;5.86;54.84
10261;BME280;5175;42.606;23.388;2023-02-03T11:00:27;94289.94;;;5.12;53.52
10261;BME280;5175;42.606;23.388;2023-02-03T11:03:04;94286.50;;;4.99;55.53
10261;BME280;5175;42.606;23.388;2023-02-03T11:05:32;94248.38;;;4.61;57.34
10261;BME280;5175;42.606;23.388;2023-02-03T11:07:58;94285.13;;;4.97;58.18
10261;BME280;5175;42.606;23.388;2023-02-03T11:10:31;94278.13;;;5.02;57.87
10261;BME280;5175;42.606;23.388;2023-02-03T11:13:17;94280.88;;;4.84;58.02
10261;BME280;5175;42.606;23.388;2023-02-03T11:15:50;94282.25;;;4.75;57.45
10261;BME280;5175;42.606;23.388;2023-02-03T11:18:40;94277.34;;;4.67;55.12
10261;BME280;5175;42.606;23.388;2023-02-03T11:21:10;94276.28;;;4.57;54.51
10261;BME280;5175;42.606;23.388;2023-02-03T11:23:44;94253.41;;;4.16;54.14
10261;BME280;5175;42.606;23.388;2023-02-03T11:26:14;94283.34;;;4.21;54.36
10261;BME280;5175;42.606;23.388;2023-02-03T11:28:45;94271.91;;;4.39;54.13
10261;BME280;5175;42.606;23.388;2023-02-03T11:31:21;94266.88;;;4.84;51.14
10261;BME280;5175;42.606;23.388;2023-02-03T11:33:55;94243.44;;;4.53;52.83
10261;BME280;5175;42.606;23.388;2023-02-03T11:36:25;94252.03;;;4.83;53.48
10261;BME280;5175;42.606;23.388;2023-02-03T11:39:08;94242.13;;;5.01;54.67
10261;BME280;5175;42.606;23.388;2023-02-03T11:41:37;94248.94;;;4.74;55.05
10261;BME280;5175;42.606;23.388;2023-02-03T11:44:10;94262.97;;;4.52;52.64
10261;BME280;5175;42.606;23.388;2023-02-03T11:46:39;94252.63;;;4.50;52.86
10261;BME280;5175;42.606;23.388;2023-02-03T11:49:15;94166.09;;;3.76;53.96
10261;BME280;5175;42.606;23.388;2023-02-03T11:51:51;94232.03;;;4.29;54.29
10261;BME280;5175;42.606;23.388;2023-02-03T11:54:28;94238.00;;;4.24;54.36
10261;BME280;5175;42.606;23.388;2023-02-03T11:57:08;94231.38;;;4.45;53.47
10261;BME280;5175;42.606;23.388;2023-02-03T11:59:48;94234.13;;;4.85;51.58
10261;BME280;5175;42.606;23.388;2023-02-03T12:02:58;94222.38;;;4.92;52.65
10261;BME280;5175;42.606;23.388;2023-02-03T12:05:54;94235.81;;;5.02;52.94
10261;BME280;5175;42.606;23.388;2023-02-03T12:08:44;94251.78;;;5.47;52.60
10261;BME280;5175;42.606;23.388;2023-02-03T12:11:23;94248.25;;;4.79;53.08
10261;BME280;5175;42.606;23.388;2023-02-03T12:14:08;94241.03;;;4.74;52.48
10261;BME280;5175;42.606;23.388;2023-02-03T12:17:02;94248.38;;;4.61;50.89
10261;BME280;5175;42.606;23.388;2023-02-03T12:19:43;94249.84;;;4.45;51.96
10261;BME280;5175;42.606;23.388;2023-02-03T12:22:18;94249.94;;;4.27;50.89
10261;BME280;5175;42.606;23.388;2023-02-03T12:24:55;94241.13;;;4.44;50.56
10261;BME280;5175;42.606;23.388;2023-02-03T12:27:33;94231.44;;;4.96;49.97
10261;BME280;5175;42.606;23.388;2023-02-03T12:30:09;94231.19;;;5.21;49.20
10261;BME280;5175;42.606;23.388;2023-02-03T12:32:43;94229.03;;;4.95;49.41
10261;BME280;5175;42.606;23.388;2023-02-03T12:35:17;94241.53;;;5.51;49.01
10261;BME280;5175;42.606;23.388;2023-02-03T12:37:49;94226.38;;;5.75;48.13
10261;BME280;5175;42.606;23.388;2023-02-03T12:40:27;94232.13;;;6.00;47.15
10261;BME280;5175;42.606;23.388;2023-02-03T12:43:17;94224.19;;;6.16;45.89
10261;BME280;5175;42.606;23.388;2023-02-03T12:45:50;94198.34;;;5.90;46.48
10261;BME280;5175;42.606;23.388;2023-02-03T12:48:22;94217.75;;;5.96;46.38
10261;BME280;5175;42.606;23.388;2023-02-03T12:50:57;94201.56;;;5.92;46.34
10261;BME280;5175;42.606;23.388;2023-02-03T12:53:28;94210.22;;;5.88;46.46
10261;BME280;5175;42.606;23.388;2023-02-03T12:56:00;94200.84;;;5.68;47.10
10261;BME280;5175;42.606;23.388;2023-02-03T12:58:31;94203.22;;;5.70;46.62
10261;BME280;5175;42.606;23.388;2023-02-03T13:01:03;94203.94;;;5.09;48.84
10261;BME280;5175;42.606;23.388;2023-02-03T13:03:35;94200.13;;;4.54;50.26
10261;BME280;5175;42.606;23.388;2023-02-03T13:06:14;94209.88;;;4.30;52.26
10261;BME280;5175;42.606;23.388;2023-02-03T13:08:48;94197.69;;;3.83;52.63
10261;BME280;5175;42.606;23.388;2023-02-03T13:11:22;94204.09;;;3.98;53.16
10261;BME280;5175;42.606;23.388;2023-02-03T13:13:53;94201.81;;;3.90;53.00
10261;BME280;5175;42.606;23.388;2023-02-03T13:16:25;94202.13;;;3.41;53.53
10261;BME280;5175;42.606;23.388;2023-02-03T13:18:57;94208.63;;;3.56;54.04
10261;BME280;5175;42.606;23.388;2023-02-03T13:21:28;94211.53;;;3.78;53.86
10261;BME280;5175;42.606;23.388;2023-02-03T13:23:55;94199.34;;;3.65;53.48
10261;BME280;5175;42.606;23.388;2023-02-03T13:26:41;94199.78;;;3.62;55.09